Time;durP1;ratioP1;P1;durP2;ratioP2;P2;SDS_P1;SDS_P2;PMS_P1;PMS_P2;Temp;Humidity;BMP_temperature;BMP_pressure;BME280_temperature;BME280_humidity;BME280_pressure;Samples;Min_cycle;Max_cycle;Signal;HPM_P1;HPM_P2
2022/12/07 00:01:29;;;;;;;;;;;;;;;5.29;77.50;100308.50;5057444;28;4101;-78
2022/12/07 00:03:57;;;;;;;;;;;;;;;5.26;77.46;100308.88;5071356;28;3279;-80
2022/12/07 00:06:23;;;;;;;;;;;;;;;5.24;77.56;100298.41;5062691;28;4311;-79
2022/12/07 00:08:50;;;;;;;;;;;;;;;5.24;77.84;100310.94;5083806;28;4038;-79
2022/12/07 00:11:17;;;;;;;;;;;;;;;5.30;77.99;100304.00;5052564;28;4292;-80
2022/12/07 00:13:43;;;;;;;;;;;;;;;5.28;77.64;100303.38;5070076;28;4057;-78
2022/12/07 00:16:10;;;;;;;;;;;;;;;5.34;77.84;100297.25;5070864;28;4503;-79
2022/12/07 00:18:36;;;;;;;;;;;;;;;5.34;77.96;100294.59;5070895;28;4078;-78
2022/12/07 00:21:03;;;;;;;;;;;;;;;5.29;77.78;100294.31;5052610;28;3933;-79
2022/12/07 00:23:29;;;;;;;;;;;;;;;5.32;78.07;100289.44;5052550;28;3967;-78
2022/12/07 00:25:56;;;;;;;;;;;;;;;5.35;77.58;100299.72;5083967;28;4132;-79
2022/12/07 00:28:22;;;;;;;;;;;;;;;5.34;77.28;100299.94;5050682;28;4236;-78
2022/12/07 00:30:49;;;;;;;;;;;;;;;5.40;77.12;100291.97;5068393;28;4218;-79
2022/12/07 00:33:16;;;;;;;;;;;;;;;5.35;77.58;100304.25;5053472;28;4077;-79
2022/12/07 00:35:42;;;;;;;;;;;;;;;5.37;77.43;100304.88;5069657;28;4039;-79
2022/12/07 00:38:09;;;;;;;;;;;;;;;5.39;77.75;100295.66;5080610;28;4174;-79
2022/12/07 00:40:36;;;;;;;;;;;;;;;5.40;77.60;100302.66;5067566;28;4121;-79
2022/12/07 00:43:02;;;;;;;;;;;;;;;5.40;77.33;100301.84;5066678;28;4016;-79
2022/12/07 00:45:29;;;;;;;;;;;;;;;5.40;77.38;100296.50;5066474;28;4168;-79
2022/12/07 00:47:55;;;;;;;;;;;;;;;5.36;77.49;100306.72;5068893;28;4291;-79
2022/12/07 00:50:22;;;;;;;;;;;;;;;5.40;77.32;100296.50;5051159;28;4294;-79
2022/12/07 00:52:48;;;;;;;;;;;;;;;5.42;77.54;100297.97;5071827;28;4187;-79
2022/12/07 00:55:15;;;;;;;;;;;;;;;5.43;77.40;100296.94;5077685;28;4107;-79
2022/12/07 00:57:41;;;;;;;;;;;;;;;5.41;77.10;100298.97;5057523;28;3686;-79
2022/12/07 01:00:08;;;;;;;;;;;;;;;5.46;77.15;100303.72;5072714;28;4038;-78
2022/12/07 01:02:34;;;;;;;;;;;;;;;5.42;77.44;100294.47;5073431;28;4085;-79
2022/12/07 01:05:01;;;;;;;;;;;;;;;5.41;77.49;100293.63;5066278;28;4133;-78
2022/12/07 01:07:27;;;;;;;;;;;;;;;5.38;77.52;100290.50;5050239;28;3926;-77
2022/12/07 01:09:54;;;;;;;;;;;;;;;5.37;77.31;100295.03;5074094;28;4048;-78
2022/12/07 01:12:21;;;;;;;;;;;;;;;5.38;77.48;100298.50;5052731;28;4184;-79
2022/12/07 01:14:47;;;;;;;;;;;;;;;5.33;77.32;100287.59;5075729;28;3852;-77
2022/12/07 01:17:14;;;;;;;;;;;;;;;5.31;77.71;100287.78;5089025;28;4042;-78
2022/12/07 01:19:40;;;;;;;;;;;;;;;5.30;77.53;100286.13;5075212;28;3869;-78
2022/12/07 01:22:07;;;;;;;;;;;;;;;5.31;77.67;100286.97;5078120;28;4160;-78
2022/12/07 01:24:33;;;;;;;;;;;;;;;5.37;77.47;100292.34;5062360;28;3900;-78
2022/12/07 01:27:00;;;;;;;;;;;;;;;5.32;77.50;100286.75;5049186;28;3884;-79
2022/12/07 01:29:26;;;;;;;;;;;;;;;5.30;77.43;100290.66;5069236;28;4041;-77
2022/12/07 01:31:53;;;;;;;;;;;;;;;5.31;78.11;100295.78;5069726;28;4143;-78
2022/12/07 01:34:19;;;;;;;;;;;;;;;5.28;77.60;100290.00;5070689;28;4217;-77
2022/12/07 01:36:46;;;;;;;;;;;;;;;5.28;77.73;100288.16;5071146;28;3978;-77
2022/12/07 01:39:12;;;;;;;;;;;;;;;5.28;77.64;100293.50;5069714;28;4217;-77
2022/12/07 01:41:40;;;;;;;;;;;;;;;5.29;78.05;100297.81;5067726;28;4138;-78
2022/12/07 01:44:06;;;;;;;;;;;;;;;5.28;77.75;100295.34;5072234;28;4137;-78
2022/12/07 01:46:33;;;;;;;;;;;;;;;5.24;78.62;100289.56;5071572;28;4174;-78
2022/12/07 01:48:59;;;;;;;;;;;;;;;5.29;77.65;100289.00;5071259;28;3902;-77
2022/12/07 01:51:26;;;;;;;;;;;;;;;5.30;77.72;100288.00;5074787;28;4221;-77
2022/12/07 01:53:53;;;;;;;;;;;;;;;5.30;77.76;100294.16;5082469;28;4190;-78
2022/12/07 01:56:19;;;;;;;;;;;;;;;5.24;77.67;100297.59;5054665;28;4017;-78
2022/12/07 01:58:46;;;;;;;;;;;;;;;5.22;77.58;100299.63;5061465;28;4176;-77
2022/12/07 02:01:12;;;;;;;;;;;;;;;5.21;77.56;100298.78;5078440;28;4216;-79
2022/12/07 02:03:39;;;;;;;;;;;;;;;5.20;77.75;100293.63;5049050;28;4264;-78
2022/12/07 02:06:05;;;;;;;;;;;;;;;5.18;77.74;100288.50;5078686;28;4168;-80
2022/12/07 02:08:32;;;;;;;;;;;;;;;5.20;77.78;100282.94;5045869;28;3307;-78
2022/12/07 02:10:58;;;;;;;;;;;;;;;5.21;78.35;100281.94;5066568;28;4074;-78
2022/12/07 02:13:25;;;;;;;;;;;;;;;5.14;78.07;100276.53;5055764;28;4215;-77
2022/12/07 02:15:51;;;;;;;;;;;;;;;5.18;78.49;100282.34;5079272;28;4018;-78
2022/12/07 02:18:19;;;;;;;;;;;;;;;5.17;77.78;100275.31;5068705;28;3956;-78
2022/12/07 02:20:45;;;;;;;;;;;;;;;5.13;77.92;100279.41;5066680;28;4096;-77
2022/12/07 02:23:12;;;;;;;;;;;;;;;5.17;79.01;100275.31;5067516;28;4162;-77
2022/12/07 02:25:39;;;;;;;;;;;;;;;5.15;78.32;100267.53;5068036;28;4065;-78
2022/12/07 02:28:05;;;;;;;;;;;;;;;5.17;78.23;100267.31;5068428;28;4161;-78
2022/12/07 02:30:32;;;;;;;;;;;;;;;5.19;77.89;100270.63;5070378;28;3157;-77
2022/12/07 02:32:58;;;;;;;;;;;;;;;5.11;77.79;100262.75;5047507;28;4222;-78
2022/12/07 02:35:25;;;;;;;;;;;;;;;5.16;77.88;100260.34;5052670;28;4092;-76
2022/12/07 02:37:51;;;;;;;;;;;;;;;5.15;77.71;100258.69;5059618;28;4152;-79
2022/12/07 02:40:18;;;;;;;;;;;;;;;5.13;77.75;100253.53;5047099;28;4169;-78
2022/12/07 02:42:44;;;;;;;;;;;;;;;5.17;77.64;100253.97;5069207;28;4118;-78
2022/12/07 02:45:11;;;;;;;;;;;;;;;5.15;77.82;100248.00;5047905;28;3975;-78
2022/12/07 02:47:37;;;;;;;;;;;;;;;5.13;77.76;100245.50;5067918;28;3893;-78
2022/12/07 02:50:04;;;;;;;;;;;;;;;5.11;77.86;100255.56;5061697;28;4027;-76
2022/12/07 02:52:30;;;;;;;;;;;;;;;5.13;77.75;100252.69;5069438;28;4249;-79
2022/12/07 02:54:57;;;;;;;;;;;;;;;5.13;77.60;100252.69;5067788;28;3283;-77
2022/12/07 02:57:23;;;;;;;;;;;;;;;5.14;77.63;100246.34;5068064;28;4219;-77
2022/12/07 02:59:50;;;;;;;;;;;;;;;5.10;78.42;100256.56;5073191;28;4116;-76
2022/12/07 03:02:17;;;;;;;;;;;;;;;5.10;77.76;100256.56;5060971;28;4408;-80
2022/12/07 03:04:44;;;;;;;;;;;;;;;5.09;77.63;100254.09;5066296;28;4271;-77
2022/12/07 03:07:10;;;;;;;;;;;;;;;5.11;77.76;100249.38;5069742;28;4340;-76
2022/12/07 03:09:37;;;;;;;;;;;;;;;5.08;77.80;100252.44;5065770;28;4100;-77
2022/12/07 03:12:03;;;;;;;;;;;;;;;5.12;77.70;100251.88;5052610;28;4181;-78
2022/12/07 03:14:30;;;;;;;;;;;;;;;5.09;77.81;100238.91;5068083;28;3736;-79
2022/12/07 03:16:56;;;;;;;;;;;;;;;5.11;77.45;100255.56;5070024;28;4251;-78
2022/12/07 03:19:23;;;;;;;;;;;;;;;5.10;78.32;100256.56;5067843;28;4140;-78
2022/12/07 03:21:49;;;;;;;;;;;;;;;5.11;77.83;100250.22;5069967;28;4190;-76
2022/12/07 03:24:16;;;;;;;;;;;;;;;5.14;77.87;100251.69;5051635;28;3703;-77
2022/12/07 03:26:43;;;;;;;;;;;;;;;5.10;77.94;100255.75;5068730;28;4203;-77
2022/12/07 03:29:09;;;;;;;;;;;;;;;5.09;77.57;100254.94;5071632;28;4323;-77
2022/12/07 03:31:36;;;;;;;;;;;;;;;5.14;78.18;100255.16;5079522;28;3848;-79
2022/12/07 03:34:02;;;;;;;;;;;;;;;5.13;77.46;100258.03;5068137;28;4338;-77
2022/12/07 03:36:29;;;;;;;;;;;;;;;5.11;77.51;100250.22;5075395;28;4136;-78
2022/12/07 03:38:55;;;;;;;;;;;;;;;5.10;77.72;100253.09;5050227;28;4036;-77
2022/12/07 03:41:22;;;;;;;;;;;;;;;5.13;77.71;100245.50;5051147;28;4319;-78
2022/12/07 03:43:51;;;;;;;;;;;;;;;5.08;77.65;100245.25;5075608;28;4253;-78
2022/12/07 03:46:18;;;;;;;;;;;;;;;5.06;77.51;100235.78;5070839;28;3844;-77
2022/12/07 03:48:44;;;;;;;;;;;;;;;5.11;77.71;100234.19;5066323;28;4032;-77
2022/12/07 03:51:11;;;;;;;;;;;;;;;5.08;77.45;100231.91;5072284;28;3931;-76
2022/12/07 03:53:38;;;;;;;;;;;;;;;5.08;77.42;100233.75;5070328;28;3846;-77
2022/12/07 03:56:04;;;;;;;;;;;;;;;5.14;78.00;100233.00;5081710;28;3825;-77
2022/12/07 03:58:31;;;;;;;;;;;;;;;5.10;77.33;100234.41;5068463;28;4232;-77
2022/12/07 04:00:57;;;;;;;;;;;;;;;5.12;77.76;100227.03;5068015;28;4160;-77
2022/12/07 04:03:24;;;;;;;;;;;;;;;5.10;77.27;100219.22;5070589;28;3300;-77
2022/12/07 04:05:50;;;;;;;;;;;;;;;5.03;77.47;100215.66;5065524;28;4244;-78
2022/12/07 04:08:17;;;;;;;;;;;;;;;5.13;77.44;100220.66;5067108;28;4057;-77
2022/12/07 04:10:43;;;;;;;;;;;;;;;5.14;77.21;100219.63;5048497;28;3853;-78
2022/12/07 04:13:21;;;;;;;;;;;;;;;5.17;77.08;100220.06;5048433;28;4100;-78
2022/12/07 04:15:48;;;;;;;;;;;;;;;5.18;76.80;100215.59;5066741;28;3789;-77
2022/12/07 04:18:14;;;;;;;;;;;;;;;5.14;77.21;100208.97;5078601;28;4065;-77
2022/12/07 04:20:41;;;;;;;;;;;;;;;5.12;77.46;100208.34;5066664;28;4153;-77
2022/12/07 04:23:07;;;;;;;;;;;;;;;5.13;77.25;100207.31;5049713;28;3994;-77
2022/12/07 04:25:34;;;;;;;;;;;;;;;5.11;77.05;100204.84;5048911;28;4357;-77
2022/12/07 04:28:00;;;;;;;;;;;;;;;5.14;77.29;100212.44;5082883;28;3377;-77
2022/12/07 04:30:27;;;;;;;;;;;;;;;5.10;77.28;100200.53;5046454;28;4355;-75
2022/12/07 04:32:53;;;;;;;;;;;;;;;5.12;77.28;100205.69;5071157;28;4151;-76
2022/12/07 04:35:20;;;;;;;;;;;;;;;5.12;77.43;100201.16;5053016;28;4146;-77
2022/12/07 04:37:47;;;;;;;;;;;;;;;5.06;77.20;100198.41;5071272;28;4156;-77
2022/12/07 04:40:14;;;;;;;;;;;;;;;5.06;77.91;100206.41;5072346;28;4249;-77
2022/12/07 04:42:40;;;;;;;;;;;;;;;5.17;77.39;100192.56;5046712;28;4305;-77
2022/12/07 04:45:07;;;;;;;;;;;;;;;5.12;77.60;100189.66;5073192;28;4198;-77
2022/12/07 04:47:33;;;;;;;;;;;;;;;5.09;77.22;100190.03;5068416;28;4116;-77
2022/12/07 04:50:00;;;;;;;;;;;;;;;5.09;77.23;100180.19;5051966;28;4130;-77
2022/12/07 04:52:26;;;;;;;;;;;;;;;5.13;77.50;100172.63;5069795;28;4109;-76
2022/12/07 04:54:53;;;;;;;;;;;;;;;5.20;76.74;100176.16;5060059;28;4134;-78
2022/12/07 04:57:19;;;;;;;;;;;;;;;5.21;76.94;100178.63;5070149;28;4221;-77
2022/12/07 04:59:46;;;;;;;;;;;;;;;5.18;77.25;100171.03;5069930;28;4086;-77
2022/12/07 05:02:13;;;;;;;;;;;;;;;5.13;76.90;100172.63;5067630;28;4014;-79
2022/12/07 05:04:39;;;;;;;;;;;;;;;5.09;76.90;100174.84;5065388;28;4178;-77
2022/12/07 05:07:06;;;;;;;;;;;;;;;5.09;77.18;100180.19;5070656;28;3781;-76
2022/12/07 05:09:32;;;;;;;;;;;;;;;5.11;77.39;100179.97;5066405;28;4145;-76
2022/12/07 05:11:59;;;;;;;;;;;;;;;5.11;77.07;100179.97;5068680;28;3884;-77
2022/12/07 05:14:26;;;;;;;;;;;;;;;5.13;77.31;100184.13;5059071;28;3779;-78
2022/12/07 05:16:53;;;;;;;;;;;;;;;5.08;77.06;100193.72;5085015;28;3782;-78
2022/12/07 05:19:19;;;;;;;;;;;;;;;5.12;76.70;100182.47;5085197;28;3948;-77
2022/12/07 05:21:46;;;;;;;;;;;;;;;5.14;76.80;100184.94;5069955;28;4105;-77
2022/12/07 05:24:12;;;;;;;;;;;;;;;5.09;77.01;100182.00;5055921;28;4154;-77
2022/12/07 05:26:39;;;;;;;;;;;;;;;5.12;77.23;100184.31;5053356;28;4313;-77
2022/12/07 05:29:05;;;;;;;;;;;;;;;5.10;77.16;100181.84;5053363;28;4182;-77
2022/12/07 05:31:32;;;;;;;;;;;;;;;5.14;77.19;100187.59;5069120;28;4222;-76
2022/12/07 05:33:58;;;;;;;;;;;;;;;5.13;76.66;100181.44;5068097;28;4160;-75
2022/12/07 05:36:25;;;;;;;;;;;;;;;5.11;77.08;100188.00;5087579;28;4465;-75
2022/12/07 05:38:52;;;;;;;;;;;;;;;5.13;76.99;100186.78;5057056;28;4126;-77
2022/12/07 05:44:02;;;;;;;;;;;;;;;5.09;76.75;100195.34;5047869;28;3881;-76
2022/12/07 05:46:29;;;;;;;;;;;;;;;5.11;76.75;100188.00;5070012;28;3987;-77
2022/12/07 05:48:56;;;;;;;;;;;;;;;5.17;76.43;100185.38;5070888;28;4007;-76
2022/12/07 05:51:22;;;;;;;;;;;;;;;5.11;76.71;100185.31;5072528;28;4065;-77
2022/12/07 05:53:49;;;;;;;;;;;;;;;5.08;76.70;100175.84;5078036;28;4286;-77
2022/12/07 05:56:15;;;;;;;;;;;;;;;5.06;76.73;100179.72;5078496;28;4024;-76
2022/12/07 06:01:28;;;;;;;;;;;;;;;5.16;77.21;100188.25;5016816;28;4312;-77
2022/12/07 06:03:55;;;;;;;;;;;;;;;5.13;76.58;100200.13;5061166;28;4173;-76
2022/12/07 06:06:22;;;;;;;;;;;;;;;5.22;76.39;100190.97;5057972;28;4282;-77
2022/12/07 06:08:48;;;;;;;;;;;;;;;5.14;76.65;100187.59;5072856;28;4313;-77
2022/12/07 06:13:59;;;;;;;;;;;;;;;5.09;76.88;100180.19;5070677;28;4042;-76
2022/12/07 06:16:26;;;;;;;;;;;;;;;5.12;76.56;100181.66;5060436;28;4490;-77
2022/12/07 06:18:52;;;;;;;;;;;;;;;5.15;76.33;100179.41;5075887;28;4210;-77
2022/12/07 06:21:19;;;;;;;;;;;;;;;5.10;76.67;100173.81;5073916;28;4195;-77
2022/12/07 06:23:47;;;;;;;;;;;;;;;5.11;76.53;100178.13;5063261;28;4355;-77
2022/12/07 06:26:14;;;;;;;;;;;;;;;5.11;76.35;100174.63;5069880;28;4196;-77
2022/12/07 06:28:40;;;;;;;;;;;;;;;5.12;76.47;100182.47;5050895;28;3710;-77
2022/12/07 06:31:07;;;;;;;;;;;;;;;5.09;76.49;100182.00;5069771;28;4273;-77
2022/12/07 06:33:34;;;;;;;;;;;;;;;5.12;76.81;100184.31;5062195;28;4283;-78
2022/12/07 06:36:00;;;;;;;;;;;;;;;5.20;76.43;100184.16;5065679;28;3990;-77
2022/12/07 06:38:27;;;;;;;;;;;;;;;5.11;76.19;100191.47;5080546;28;4298;-77
2022/12/07 06:40:53;;;;;;;;;;;;;;;5.14;76.22;100193.75;5065081;28;4414;-76
2022/12/07 06:43:20;;;;;;;;;;;;;;;5.16;76.72;100191.72;5052179;28;4237;-78
2022/12/07 06:45:46;;;;;;;;;;;;;;;5.08;76.17;100181.19;5076185;28;4308;-78
2022/12/07 06:48:13;;;;;;;;;;;;;;;5.10;76.48;100176.50;5071010;28;4497;-77
2022/12/07 06:50:39;;;;;;;;;;;;;;;5.14;76.80;100174.25;5068524;28;4090;-77
2022/12/07 06:53:06;;;;;;;;;;;;;;;5.16;76.39;100175.72;5055033;28;3747;-77
2022/12/07 06:55:32;;;;;;;;;;;;;;;5.19;76.32;100171.84;5072998;28;4574;-77
2022/12/07 06:57:59;;;;;;;;;;;;;;;5.05;76.67;100181.56;5072552;28;4663;-78
2022/12/07 07:00:25;;;;;;;;;;;;;;;5.11;76.88;100174.63;5071313;28;4266;-79
2022/12/07 07:02:52;;;;;;;;;;;;;;;5.12;76.39;100177.13;5053636;28;4193;-77
2022/12/07 07:05:21;;;;;;;;;;;;;;;5.17;76.37;100181.88;5068246;28;4327;-76
2022/12/07 07:07:47;;;;;;;;;;;;;;;5.18;76.06;100178.22;5070750;28;4374;-77
2022/12/07 07:10:14;;;;;;;;;;;;;;;5.05;76.47;100181.56;5058711;28;4303;-76
2022/12/07 07:12:40;;;;;;;;;;;;;;;5.13;76.38;100183.28;5064242;28;4321;-77
2022/12/07 07:15:07;;;;;;;;;;;;;;;5.10;76.10;100184.50;5072670;28;4089;-78
2022/12/07 07:17:33;;;;;;;;;;;;;;;5.09;76.45;100174.00;5070397;28;3862;-77
2022/12/07 07:20:00;;;;;;;;;;;;;;;5.04;76.82;100187.13;5054441;28;4482;-77
2022/12/07 07:22:26;;;;;;;;;;;;;;;5.12;76.25;100176.31;5072291;28;4255;-77
2022/12/07 07:24:53;;;;;;;;;;;;;;;5.11;76.20;100172.78;5044642;28;4320;-79
2022/12/07 07:27:19;;;;;;;;;;;;;;;5.10;76.42;100181.00;5073306;28;4185;-78
2022/12/07 07:29:46;;;;;;;;;;;;;;;5.11;76.18;100178.13;5060964;28;4417;-77
2022/12/07 07:32:13;;;;;;;;;;;;;;;5.09;76.65;100179.34;5052557;28;4390;-78
2022/12/07 07:34:39;;;;;;;;;;;;;;;5.15;75.85;100184.75;5057744;28;4626;-76
2022/12/07 07:37:06;;;;;;;;;;;;;;;5.13;76.33;100185.97;5069708;28;4259;-77
2022/12/07 07:39:32;;;;;;;;;;;;;;;5.19;75.91;100187.84;5070935;28;4312;-75
2022/12/07 07:41:59;;;;;;;;;;;;;;;5.08;76.15;100183.84;5077077;28;4103;-77
2022/12/07 07:44:25;;;;;;;;;;;;;;;5.09;76.21;100172.19;5064895;28;4250;-76
2022/12/07 07:46:52;;;;;;;;;;;;;;;5.08;76.13;100165.16;5071953;28;4461;-77
2022/12/07 07:49:19;;;;;;;;;;;;;;;5.05;76.35;100173.56;5075052;28;4001;-76
2022/12/07 07:51:45;;;;;;;;;;;;;;;5.08;76.20;100164.34;5061289;28;3768;-78
2022/12/07 07:54:12;;;;;;;;;;;;;;;5.20;75.93;100162.81;5070856;28;4068;-76
2022/12/07 07:56:38;;;;;;;;;;;;;;;5.14;75.81;100161.72;5054673;28;4384;-76
2022/12/07 07:59:05;;;;;;;;;;;;;;;5.14;75.70;100167.06;5071567;28;4229;-77
2022/12/07 08:01:31;;;;;;;;;;;;;;;5.16;76.00;100159.69;5074063;28;4347;-76
2022/12/07 08:03:58;;;;;;;;;;;;;;;5.14;75.82;100168.91;5049518;28;4504;-77
2022/12/07 08:06:24;;;;;;;;;;;;;;;5.27;75.78;100163.69;5076446;28;4374;-77
2022/12/07 08:08:51;;;;;;;;;;;;;;;5.15;75.99;100171.41;5078452;28;4192;-77
2022/12/07 08:11:17;;;;;;;;;;;;;;;5.13;75.86;100172.63;5075943;28;4148;-77
2022/12/07 08:13:44;;;;;;;;;;;;;;;5.09;75.95;100164.19;5077707;28;4455;-78
2022/12/07 08:16:11;;;;;;;;;;;;;;;5.11;75.88;100166.63;5064596;28;4142;-76
2022/12/07 08:18:37;;;;;;;;;;;;;;;5.16;75.80;100174.91;5079618;28;4189;-77
2022/12/07 08:21:04;;;;;;;;;;;;;;;5.14;75.99;100176.94;5077870;28;4240;-77
2022/12/07 08:23:30;;;;;;;;;;;;;;;5.13;75.70;100177.97;5065138;28;4184;-77
2022/12/07 08:25:57;;;;;;;;;;;;;;;5.08;76.05;100167.03;5073320;28;4255;-79
2022/12/07 08:28:23;;;;;;;;;;;;;;;5.18;75.86;100179.03;5080999;28;4305;-77
2022/12/07 08:30:50;;;;;;;;;;;;;;;5.05;76.11;100170.91;5072089;28;4508;-77
2022/12/07 08:33:16;;;;;;;;;;;;;;;5.08;76.24;100161.69;5077559;28;4236;-76
2022/12/07 08:35:43;;;;;;;;;;;;;;;5.14;76.17;100163.56;5072376;28;4144;-78
2022/12/07 08:38:09;;;;;;;;;;;;;;;5.09;76.10;100166.00;5077874;28;4136;-77
2022/12/07 08:40:36;;;;;;;;;;;;;;;5.11;76.06;100155.97;5074941;28;4150;-78
2022/12/07 08:43:02;;;;;;;;;;;;;;;5.10;76.13;100162.31;5069010;28;4047;-76
2022/12/07 08:45:32;;;;;;;;;;;;;;;5.06;76.28;100167.22;5072065;28;4080;-76
2022/12/07 08:47:58;;;;;;;;;;;;;;;5.11;75.75;100172.78;5070272;28;4153;-77
2022/12/07 08:50:25;;;;;;;;;;;;;;;5.12;75.79;100161.13;5074755;28;4208;-75
2022/12/07 08:52:51;;;;;;;;;;;;;;;5.08;76.22;100159.00;5075322;28;4240;-77
2022/12/07 08:55:18;;;;;;;;;;;;;;;5.04;75.95;100153.25;5055322;28;4124;-77
2022/12/07 08:57:44;;;;;;;;;;;;;;;4.99;76.14;100150.31;5067706;28;4232;-78
2022/12/07 09:00:11;;;;;;;;;;;;;;;5.07;76.00;100157.38;5076884;28;4289;-77
2022/12/07 09:02:37;;;;;;;;;;;;;;;5.28;75.22;100146.63;5061208;28;4114;-76
2022/12/07 09:05:04;;;;;;;;;;;;;;;5.06;75.84;100155.69;5072301;28;4288;-76
2022/12/07 09:07:30;;;;;;;;;;;;;;;5.17;75.42;100166.69;5073133;28;3959;-78
2022/12/07 09:09:57;;;;;;;;;;;;;;;5.09;75.57;100172.19;5085525;28;1983;-77
2022/12/07 09:12:24;;;;;;;;;;;;;;;5.07;75.51;100160.03;5073192;28;2558;-77
2022/12/07 09:14:50;;;;;;;;;;;;;;;5.12;75.39;100170.97;5075239;28;2121;-76
2022/12/07 09:17:17;;;;;;;;;;;;;;;5.08;75.94;100159.84;5071969;28;4213;-76
2022/12/07 09:19:43;;;;;;;;;;;;;;;5.01;75.83;100151.78;5090772;28;2204;-77
2022/12/07 09:22:10;;;;;;;;;;;;;;;5.09;75.63;100142.81;5065154;28;2511;-77
2022/12/07 09:24:37;;;;;;;;;;;;;;;5.17;75.42;100147.16;5076537;28;4041;-78
2022/12/07 09:27:03;;;;;;;;;;;;;;;5.06;75.73;100151.22;5073111;28;4202;-78
2022/12/07 09:29:30;;;;;;;;;;;;;;;5.13;75.46;100151.25;5058271;28;4295;-77
2022/12/07 09:31:56;;;;;;;;;;;;;;;5.14;75.83;100150.22;5075044;28;4041;-77
2022/12/07 09:34:23;;;;;;;;;;;;;;;5.10;75.62;100149.78;5072110;28;4235;-78
2022/12/07 09:36:49;;;;;;;;;;;;;;;5.11;75.53;100140.75;5058219;28;4064;-77
2022/12/07 09:39:16;;;;;;;;;;;;;;;5.08;75.53;100143.81;5076908;28;4160;-77
2022/12/07 09:41:42;;;;;;;;;;;;;;;5.22;75.20;100136.75;5069986;28;4109;-77
2022/12/07 09:44:09;;;;;;;;;;;;;;;5.08;75.51;100132.31;5073207;28;4203;-77
2022/12/07 09:46:35;;;;;;;;;;;;;;;5.05;75.94;100133.53;5069919;28;4107;-76
2022/12/07 09:49:02;;;;;;;;;;;;;;;5.15;75.61;100128.69;5062826;28;4084;-77
2022/12/07 09:51:29;;;;;;;;;;;;;;;5.11;75.43;100127.41;5076796;28;3849;-77
2022/12/07 09:53:55;;;;;;;;;;;;;;;5.15;75.57;100126.03;5077362;28;4173;-77
2022/12/07 09:56:22;;;;;;;;;;;;;;;5.10;75.56;100128.44;5074743;28;4022;-77
2022/12/07 09:58:48;;;;;;;;;;;;;;;5.09;75.80;100125.94;5075374;28;4365;-78
2022/12/07 10:01:15;;;;;;;;;;;;;;;5.09;75.54;100120.63;5075710;28;4241;-77
2022/12/07 10:03:41;;;;;;;;;;;;;;;5.19;75.26;100119.25;5076627;28;4148;-77
2022/12/07 10:06:08;;;;;;;;;;;;;;;5.09;75.62;100123.28;5076546;28;4042;-78
2022/12/07 10:08:34;;;;;;;;;;;;;;;5.08;75.44;100116.31;5072920;28;3842;-76
2022/12/07 10:11:02;;;;;;;;;;;;;;;5.16;75.72;100119.66;5074049;28;4370;-78
2022/12/07 10:13:29;;;;;;;;;;;;;;;5.00;75.81;100115.44;5075624;28;4054;-78
2022/12/07 10:15:55;;;;;;;;;;;;;;;5.04;75.84;100107.88;5077811;28;4119;-77
2022/12/07 10:18:22;;;;;;;;;;;;;;;5.04;76.14;100115.88;5078344;28;4043;-78
2022/12/07 10:20:48;;;;;;;;;;;;;;;5.04;76.29;100112.38;5076719;28;4160;-79
2022/12/07 10:23:15;;;;;;;;;;;;;;;5.09;75.70;100113.47;5077331;28;4180;-78
2022/12/07 10:25:42;;;;;;;;;;;;;;;5.09;75.76;100102.78;5074644;28;4275;-79
2022/12/07 10:28:08;;;;;;;;;;;;;;;5.09;75.67;100102.78;5074744;28;4185;-79
2022/12/07 10:30:35;;;;;;;;;;;;;;;5.07;75.96;100102.13;5073533;28;4180;-78
2022/12/07 10:33:02;;;;;;;;;;;;;;;5.12;75.48;100094.38;5077007;28;4091;-79
2022/12/07 10:35:28;;;;;;;;;;;;;;;5.11;76.16;100091.88;5072250;28;3967;-80
2022/12/07 10:37:55;;;;;;;;;;;;;;;5.03;76.09;100092.88;5072920;28;4148;-79
2022/12/07 10:40:21;;;;;;;;;;;;;;;5.08;75.73;100092.28;5069657;28;4240;-81
2022/12/07 10:42:48;;;;;;;;;;;;;;;5.05;76.07;100082.81;5075582;28;4254;-81
2022/12/07 10:45:15;;;;;;;;;;;;;;;5.14;75.98;100081.63;5067976;28;4186;-79
2022/12/07 10:47:41;;;;;;;;;;;;;;;5.08;76.11;100082.41;5059704;28;4161;-78
2022/12/07 10:50:08;;;;;;;;;;;;;;;5.08;76.20;100077.09;5071583;28;4419;-79
2022/12/07 10:52:34;;;;;;;;;;;;;;;5.11;75.78;100078.53;5054005;28;4280;-79
2022/12/07 10:55:01;;;;;;;;;;;;;;;5.12;75.98;100078.34;5058389;28;4035;-80
2022/12/07 10:57:28;;;;;;;;;;;;;;;5.07;76.09;100080.78;5075690;28;4385;-79
2022/12/07 10:59:54;;;;;;;;;;;;;;;5.13;75.81;100071.16;5073815;28;4279;-80
2022/12/07 11:02:21;;;;;;;;;;;;;;;5.08;75.88;100071.75;5075242;28;4478;-78
2022/12/07 11:04:47;;;;;;;;;;;;;;;5.11;75.79;100078.53;5055883;28;4278;-81
2022/12/07 11:07:15;;;;;;;;;;;;;;;5.18;75.58;100071.41;5079243;28;4292;-78
2022/12/07 11:09:42;;;;;;;;;;;;;;;5.21;75.79;100068.34;5074764;28;4212;-80
2022/12/07 11:12:09;;;;;;;;;;;;;;;5.12;76.07;100069.53;5056289;28;4410;-79
2022/12/07 11:14:35;;;;;;;;;;;;;;;5.17;76.11;100059.88;5057317;28;4054;-81
2022/12/07 11:17:03;;;;;;;;;;;;;;;5.09;76.01;100057.41;5066728;28;4173;-80
2022/12/07 11:19:30;;;;;;;;;;;;;;;5.16;76.03;100052.09;5076891;28;3581;-79
2022/12/07 11:21:56;;;;;;;;;;;;;;;5.12;76.16;100059.69;5072683;28;4074;-80
2022/12/07 11:24:23;;;;;;;;;;;;;;;5.12;76.47;100053.50;5060769;28;4053;-80
2022/12/07 11:26:50;;;;;;;;;;;;;;;5.15;76.16;100051.28;5071342;28;4390;-80
2022/12/07 11:29:16;;;;;;;;;;;;;;;5.13;76.08;100049.81;5074231;28;4176;-80
2022/12/07 11:31:44;;;;;;;;;;;;;;;5.12;75.90;100048.19;5072943;28;4146;-80
2022/12/07 11:34:10;;;;;;;;;;;;;;;5.12;76.36;100051.66;5061974;28;3988;-82
2022/12/07 11:36:37;;;;;;;;;;;;;;;5.12;76.11;100043.66;5077584;28;4430;-80
2022/12/07 11:39:04;;;;;;;;;;;;;;;5.14;76.21;100041.59;5075517;28;4212;-81
2022/12/07 11:41:30;;;;;;;;;;;;;;;5.23;75.94;100039.59;5074597;28;3486;-81
2022/12/07 11:43:57;;;;;;;;;;;;;;;5.18;76.00;100048.22;5062764;28;4173;-79
2022/12/07 11:46:24;;;;;;;;;;;;;;;5.20;76.78;100038.13;5078679;28;4184;-79
2022/12/07 11:48:51;;;;;;;;;;;;;;;5.18;76.33;100029.53;5079854;28;4225;-81
2022/12/07 11:51:18;;;;;;;;;;;;;;;5.19;76.10;100030.34;5076333;28;4115;-81
2022/12/07 11:53:44;;;;;;;;;;;;;;;5.19;76.67;100027.66;5073983;28;4207;-83
2022/12/07 11:56:11;;;;;;;;;;;;;;;5.27;76.46;100032.03;5074369;28;4326;-81
2022/12/07 11:58:37;;;;;;;;;;;;;;;5.22;76.01;100020.09;5059313;28;4063;-81
2022/12/07 12:01:04;;;;;;;;;;;;;;;5.23;76.23;100026.25;5074660;28;4197;-81
2022/12/07 12:03:31;;;;;;;;;;;;;;;5.22;76.65;100021.94;5074658;28;4188;-81
2022/12/07 12:05:58;;;;;;;;;;;;;;;5.23;76.05;100012.88;5078388;28;4161;-82
2022/12/07 12:08:24;;;;;;;;;;;;;;;5.25;76.70;100013.53;5075922;28;4152;-81
2022/12/07 12:10:51;;;;;;;;;;;;;;;5.27;76.07;100011.50;5076704;28;4244;-81
2022/12/07 12:13:17;;;;;;;;;;;;;;;5.19;76.36;100008.97;5076532;28;3888;-82
2022/12/07 12:15:44;;;;;;;;;;;;;;;5.23;76.76;100008.41;5078157;28;4109;-83
2022/12/07 12:18:10;;;;;;;;;;;;;;;5.26;76.84;100009.00;5076566;28;4113;-82
2022/12/07 12:20:37;;;;;;;;;;;;;;;5.30;76.72;100007.59;5073094;28;4139;-85
2022/12/07 12:23:04;;;;;;;;;;;;;;;5.21;76.33;100005.09;5063448;28;4097;-84
2022/12/07 12:25:30;;;;;;;;;;;;;;;5.27;76.13;100003.47;5076413;28;4449;-81
2022/12/07 12:27:57;;;;;;;;;;;;;;;5.28;76.89;100002.44;5072742;28;4114;-83
2022/12/07 12:30:23;;;;;;;;;;;;;;;5.31;76.47;100007.38;5063067;28;4328;-83
2022/12/07 12:32:50;;;;;;;;;;;;;;;5.36;76.06;100001.47;5072716;28;4216;-83
2022/12/07 12:35:17;;;;;;;;;;;;;;;5.36;76.95;100002.28;5073990;28;4004;-82
2022/12/07 12:37:44;;;;;;;;;;;;;;;5.35;76.30;99991.78;5075183;28;4034;-82
2022/12/07 12:40:10;;;;;;;;;;;;;;;5.36;76.31;99996.13;5073903;28;4189;-81
2022/12/07 12:42:37;;;;;;;;;;;;;;;5.30;76.60;99991.59;5058729;28;4319;-83
2022/12/07 12:45:04;;;;;;;;;;;;;;;5.37;76.61;99989.75;5088098;28;4023;-82
2022/12/07 12:47:30;;;;;;;;;;;;;;;5.38;76.30;99989.56;5074054;28;4590;-81
2022/12/07 12:49:57;;;;;;;;;;;;;;;5.40;76.30;99987.50;5074083;28;4205;-81
2022/12/07 12:52:23;;;;;;;;;;;;;;;5.39;76.48;99983.19;5058848;28;3763;-81
2022/12/07 12:54:50;;;;;;;;;;;;;;;5.40;76.75;99987.50;5065480;28;3714;-81
2022/12/07 12:57:16;;;;;;;;;;;;;;;5.43;76.58;99987.09;5072119;28;3823;-84
2022/12/07 12:59:43;;;;;;;;;;;;;;;5.45;76.53;99977.03;5084456;28;3994;-82
2022/12/07 13:02:10;;;;;;;;;;;;;;;5.43;76.48;99971.06;5078316;28;3174;-82